sensor_id;sensor_type;location;lat;lon;timestamp;P1;durP1;ratioP1;P2;durP2;ratioP2
64099;SDS011;50385;61.766;38.054;2022-08-21T00:02:53;13.40;;;4.80;;
64099;SDS011;50385;61.766;38.054;2022-08-21T00:06:10;5.90;;;3.33;;
64099;SDS011;50385;61.766;38.054;2022-08-21T00:09:57;10.43;;;4.72;;
64099;SDS011;50385;61.766;38.054;2022-08-21T00:16:42;11.15;;;4.28;;
64099;SDS011;50385;61.766;38.054;2022-08-21T00:20:13;10.07;;;3.53;;
64099;SDS011;50385;61.766;38.054;2022-08-21T00:23:06;11.70;;;3.83;;
64099;SDS011;50385;61.766;38.054;2022-08-21T00:25:40;5.30;;;3.28;;
64099;SDS011;50385;61.766;38.054;2022-08-21T00:28:21;12.50;;;3.83;;
64099;SDS011;50385;61.766;38.054;2022-08-21T00:31:21;10.82;;;2.97;;
64099;SDS011;50385;61.766;38.054;2022-08-21T00:34:14;4.70;;;2.90;;
64099;SDS011;50385;61.766;38.054;2022-08-21T00:41:20;26.10;;;3.33;;
64099;SDS011;50385;61.766;38.054;2022-08-21T00:47:48;13.40;;;3.40;;
64099;SDS011;50385;61.766;38.054;2022-08-21T00:50:21;16.50;;;4.40;;
64099;SDS011;50385;61.766;38.054;2022-08-21T00:53:01;3.75;;;3.17;;
64099;SDS011;50385;61.766;38.054;2022-08-21T00:55:48;9.68;;;2.58;;
64099;SDS011;50385;61.766;38.054;2022-08-21T00:58:43;7.47;;;3.30;;
64099;SDS011;50385;61.766;38.054;2022-08-21T01:02:04;8.52;;;3.10;;
64099;SDS011;50385;61.766;38.054;2022-08-21T01:05:01;9.07;;;3.42;;
64099;SDS011;50385;61.766;38.054;2022-08-21T01:07:45;5.65;;;3.05;;
64099;SDS011;50385;61.766;38.054;2022-08-21T01:10:29;8.98;;;3.42;;
64099;SDS011;50385;61.766;38.054;2022-08-21T01:13:09;5.50;;;2.90;;
64099;SDS011;50385;61.766;38.054;2022-08-21T01:15:51;8.48;;;2.58;;
64099;SDS011;50385;61.766;38.054;2022-08-21T01:18:39;10.68;;;3.03;;
64099;SDS011;50385;61.766;38.054;2022-08-21T01:21:16;7.50;;;3.30;;
64099;SDS011;50385;61.766;38.054;2022-08-21T01:23:49;10.27;;;3.17;;
64099;SDS011;50385;61.766;38.054;2022-08-21T01:26:25;5.25;;;3.83;;
64099;SDS011;50385;61.766;38.054;2022-08-21T01:29:11;6.05;;;3.25;;
64099;SDS011;50385;61.766;38.054;2022-08-21T01:34:27;7.07;;;2.78;;
64099;SDS011;50385;61.766;38.054;2022-08-21T01:37:41;9.90;;;3.35;;
64099;SDS011;50385;61.766;38.054;2022-08-21T01:43:56;3.72;;;2.50;;
64099;SDS011;50385;61.766;38.054;2022-08-21T01:46:27;3.65;;;2.20;;
64099;SDS011;50385;61.766;38.054;2022-08-21T01:48:57;14.02;;;3.03;;
64099;SDS011;50385;61.766;38.054;2022-08-21T01:54:31;14.18;;;8.18;;
64099;SDS011;50385;61.766;38.054;2022-08-21T01:56:58;13.20;;;6.10;;
64099;SDS011;50385;61.766;38.054;2022-08-21T01:59:26;5.65;;;3.50;;
64099;SDS011;50385;61.766;38.054;2022-08-21T02:01:54;5.82;;;3.08;;
64099;SDS011;50385;61.766;38.054;2022-08-21T02:04:24;5.65;;;2.47;;
64099;SDS011;50385;61.766;38.054;2022-08-21T02:06:52;8.57;;;3.28;;
64099;SDS011;50385;61.766;38.054;2022-08-21T02:09:51;7.40;;;3.15;;
64099;SDS011;50385;61.766;38.054;2022-08-21T02:12:28;4.25;;;3.10;;
64099;SDS011;50385;61.766;38.054;2022-08-21T02:15:11;8.15;;;3.22;;
64099;SDS011;50385;61.766;38.054;2022-08-21T02:17:54;19.70;;;3.80;;
64099;SDS011;50385;61.766;38.054;2022-08-21T02:20:40;6.72;;;3.15;;
64099;SDS011;50385;61.766;38.054;2022-08-21T02:26:34;12.90;;;4.43;;
64099;SDS011;50385;61.766;38.054;2022-08-21T02:32:37;5.65;;;3.10;;
64099;SDS011;50385;61.766;38.054;2022-08-21T02:35:10;7.82;;;3.03;;
64099;SDS011;50385;61.766;38.054;2022-08-21T02:37:53;5.87;;;3.47;;
64099;SDS011;50385;61.766;38.054;2022-08-21T02:40:46;8.48;;;3.45;;
64099;SDS011;50385;61.766;38.054;2022-08-21T02:43:32;8.48;;;3.58;;
64099;SDS011;50385;61.766;38.054;2022-08-21T02:53:50;10.57;;;5.68;;
64099;SDS011;50385;61.766;38.054;2022-08-21T02:56:22;14.45;;;5.28;;
64099;SDS011;50385;61.766;38.054;2022-08-21T02:58:50;14.27;;;6.40;;
64099;SDS011;50385;61.766;38.054;2022-08-21T03:01:20;19.55;;;5.15;;
64099;SDS011;50385;61.766;38.054;2022-08-21T03:03:51;10.52;;;4.85;;
64099;SDS011;50385;61.766;38.054;2022-08-21T03:06:19;13.63;;;5.75;;
64099;SDS011;50385;61.766;38.054;2022-08-21T03:08:48;12.52;;;5.40;;
64099;SDS011;50385;61.766;38.054;2022-08-21T03:11:18;9.63;;;5.80;;
64099;SDS011;50385;61.766;38.054;2022-08-21T03:13:48;10.13;;;5.60;;
64099;SDS011;50385;61.766;38.054;2022-08-21T03:16:15;17.40;;;6.28;;
64099;SDS011;50385;61.766;38.054;2022-08-21T03:18:48;30.65;;;6.25;;
64099;SDS011;50385;61.766;38.054;2022-08-21T03:21:18;11.02;;;5.78;;
64099;SDS011;50385;61.766;38.054;2022-08-21T03:23:45;22.85;;;6.38;;
64099;SDS011;50385;61.766;38.054;2022-08-21T03:26:15;13.18;;;5.68;;
64099;SDS011;50385;61.766;38.054;2022-08-21T03:28:42;18.88;;;6.30;;
64099;SDS011;50385;61.766;38.054;2022-08-21T03:31:09;19.27;;;5.50;;
64099;SDS011;50385;61.766;38.054;2022-08-21T03:33:45;24.17;;;5.05;;
64099;SDS011;50385;61.766;38.054;2022-08-21T03:36:25;15.93;;;5.40;;
64099;SDS011;50385;61.766;38.054;2022-08-21T03:39:08;13.40;;;5.53;;
64099;SDS011;50385;61.766;38.054;2022-08-21T03:41:43;15.32;;;4.75;;
64099;SDS011;50385;61.766;38.054;2022-08-21T03:49:14;14.32;;;5.25;;
64099;SDS011;50385;61.766;38.054;2022-08-21T03:52:32;10.98;;;4.95;;
64099;SDS011;50385;61.766;38.054;2022-08-21T03:59:15;19.52;;;5.05;;
64099;SDS011;50385;61.766;38.054;2022-08-21T04:05:24;12.18;;;5.05;;
64099;SDS011;50385;61.766;38.054;2022-08-21T04:08:37;18.80;;;4.90;;
64099;SDS011;50385;61.766;38.054;2022-08-21T04:15:31;6.45;;;4.30;;
64099;SDS011;50385;61.766;38.054;2022-08-21T04:21:55;38.65;;;5.32;;
64099;SDS011;50385;61.766;38.054;2022-08-21T04:24:56;18.98;;;4.50;;
64099;SDS011;50385;61.766;38.054;2022-08-21T04:27:27;13.90;;;5.03;;
64099;SDS011;50385;61.766;38.054;2022-08-21T04:30:03;12.93;;;4.80;;
64099;SDS011;50385;61.766;38.054;2022-08-21T04:36:25;18.55;;;4.90;;
64099;SDS011;50385;61.766;38.054;2022-08-21T04:39:08;11.10;;;4.63;;
64099;SDS011;50385;61.766;38.054;2022-08-21T04:41:42;11.60;;;4.40;;
64099;SDS011;50385;61.766;38.054;2022-08-21T04:48:29;14.30;;;4.57;;
64099;SDS011;50385;61.766;38.054;2022-08-21T04:55:38;10.43;;;4.63;;
64099;SDS011;50385;61.766;38.054;2022-08-21T04:59:00;24.38;;;4.93;;
64099;SDS011;50385;61.766;38.054;2022-08-21T05:01:30;11.35;;;4.90;;
64099;SDS011;50385;61.766;38.054;2022-08-21T05:04:00;8.63;;;4.32;;
64099;SDS011;50385;61.766;38.054;2022-08-21T05:06:31;15.40;;;4.45;;
64099;SDS011;50385;61.766;38.054;2022-08-21T05:09:01;9.95;;;4.38;;
64099;SDS011;50385;61.766;38.054;2022-08-21T05:11:30;12.27;;;4.38;;
64099;SDS011;50385;61.766;38.054;2022-08-21T05:13:58;14.98;;;4.80;;
64099;SDS011;50385;61.766;38.054;2022-08-21T05:16:25;24.70;;;4.72;;
64099;SDS011;50385;61.766;38.054;2022-08-21T05:18:52;24.40;;;4.70;;
64099;SDS011;50385;61.766;38.054;2022-08-21T05:21:19;20.23;;;4.60;;
64099;SDS011;50385;61.766;38.054;2022-08-21T05:23:47;5.90;;;4.03;;
64099;SDS011;50385;61.766;38.054;2022-08-21T05:26:14;19.05;;;4.53;;
64099;SDS011;50385;61.766;38.054;2022-08-21T05:28:41;13.15;;;4.57;;
64099;SDS011;50385;61.766;38.054;2022-08-21T05:31:07;15.57;;;4.13;;
64099;SDS011;50385;61.766;38.054;2022-08-21T05:33:34;8.52;;;3.95;;
64099;SDS011;50385;61.766;38.054;2022-08-21T05:36:01;15.35;;;4.15;;
64099;SDS011;50385;61.766;38.054;2022-08-21T05:38:29;12.02;;;4.20;;
64099;SDS011;50385;61.766;38.054;2022-08-21T05:40:56;14.38;;;4.32;;
64099;SDS011;50385;61.766;38.054;2022-08-21T05:43:23;16.55;;;4.30;;
64099;SDS011;50385;61.766;38.054;2022-08-21T05:45:49;14.65;;;4.40;;
64099;SDS011;50385;61.766;38.054;2022-08-21T05:48:18;24.30;;;4.95;;
64099;SDS011;50385;61.766;38.054;2022-08-21T05:50:47;12.98;;;4.03;;
64099;SDS011;50385;61.766;38.054;2022-08-21T05:53:15;17.95;;;4.10;;
64099;SDS011;50385;61.766;38.054;2022-08-21T05:55:44;19.45;;;4.50;;
64099;SDS011;50385;61.766;38.054;2022-08-21T05:58:15;15.30;;;4.70;;
64099;SDS011;50385;61.766;38.054;2022-08-21T06:00:49;18.50;;;5.05;;
64099;SDS011;50385;61.766;38.054;2022-08-21T06:03:43;15.98;;;4.97;;
64099;SDS011;50385;61.766;38.054;2022-08-21T06:06:10;13.68;;;4.45;;
64099;SDS011;50385;61.766;38.054;2022-08-21T06:08:37;11.25;;;4.53;;
64099;SDS011;50385;61.766;38.054;2022-08-21T06:11:04;16.13;;;3.88;;
64099;SDS011;50385;61.766;38.054;2022-08-21T06:13:32;16.52;;;3.63;;
64099;SDS011;50385;61.766;38.054;2022-08-21T06:18:30;8.95;;;3.72;;
64099;SDS011;50385;61.766;38.054;2022-08-21T06:20:57;12.68;;;3.83;;
64099;SDS011;50385;61.766;38.054;2022-08-21T06:23:24;13.75;;;3.40;;
64099;SDS011;50385;61.766;38.054;2022-08-21T06:25:55;10.18;;;3.95;;
64099;SDS011;50385;61.766;38.054;2022-08-21T06:28:22;19.98;;;4.03;;
64099;SDS011;50385;61.766;38.054;2022-08-21T06:30:56;9.77;;;3.92;;
64099;SDS011;50385;61.766;38.054;2022-08-21T06:33:23;7.57;;;3.67;;
64099;SDS011;50385;61.766;38.054;2022-08-21T06:35:50;13.45;;;3.92;;
64099;SDS011;50385;61.766;38.054;2022-08-21T06:38:17;6.90;;;3.75;;
64099;SDS011;50385;61.766;38.054;2022-08-21T06:40:47;14.40;;;4.13;;
64099;SDS011;50385;61.766;38.054;2022-08-21T06:43:14;11.57;;;4.63;;
64099;SDS011;50385;61.766;38.054;2022-08-21T06:45:42;21.83;;;4.43;;
64099;SDS011;50385;61.766;38.054;2022-08-21T06:48:10;11.85;;;4.82;;
64099;SDS011;50385;61.766;38.054;2022-08-21T06:50:37;7.82;;;4.38;;
64099;SDS011;50385;61.766;38.054;2022-08-21T06:53:06;17.45;;;5.55;;
64099;SDS011;50385;61.766;38.054;2022-08-21T06:55:36;18.38;;;5.38;;
64099;SDS011;50385;61.766;38.054;2022-08-21T06:58:04;15.48;;;5.78;;
64099;SDS011;50385;61.766;38.054;2022-08-21T07:00:31;14.07;;;5.53;;
64099;SDS011;50385;61.766;38.054;2022-08-21T07:02:59;13.18;;;6.35;;
64099;SDS011;50385;61.766;38.054;2022-08-21T07:05:26;21.70;;;6.68;;
64099;SDS011;50385;61.766;38.054;2022-08-21T07:07:55;18.20;;;6.57;;
64099;SDS011;50385;61.766;38.054;2022-08-21T07:10:23;22.30;;;6.68;;
64099;SDS011;50385;61.766;38.054;2022-08-21T07:12:51;16.25;;;7.20;;
64099;SDS011;50385;61.766;38.054;2022-08-21T07:15:20;16.00;;;6.35;;
64099;SDS011;50385;61.766;38.054;2022-08-21T07:17:47;12.32;;;6.38;;
64099;SDS011;50385;61.766;38.054;2022-08-21T07:20:13;11.05;;;6.53;;
64099;SDS011;50385;61.766;38.054;2022-08-21T07:22:40;244.75;;;16.15;;
64099;SDS011;50385;61.766;38.054;2022-08-21T07:25:07;15.07;;;5.65;;
64099;SDS011;50385;61.766;38.054;2022-08-21T07:27:34;18.27;;;6.55;;
64099;SDS011;50385;61.766;38.054;2022-08-21T07:30:02;15.30;;;6.10;;
64099;SDS011;50385;61.766;38.054;2022-08-21T07:32:30;11.20;;;5.60;;
64099;SDS011;50385;61.766;38.054;2022-08-21T07:34:57;14.98;;;5.38;;
64099;SDS011;50385;61.766;38.054;2022-08-21T07:37:24;16.05;;;5.68;;
64099;SDS011;50385;61.766;38.054;2022-08-21T07:39:53;11.20;;;5.43;;
64099;SDS011;50385;61.766;38.054;2022-08-21T07:42:19;12.88;;;5.78;;
64099;SDS011;50385;61.766;38.054;2022-08-21T07:44:48;13.45;;;5.80;;
64099;SDS011;50385;61.766;38.054;2022-08-21T07:47:15;13.75;;;5.05;;
64099;SDS011;50385;61.766;38.054;2022-08-21T07:49:42;13.85;;;5.57;;
64099;SDS011;50385;61.766;38.054;2022-08-21T07:52:10;11.63;;;5.80;;
64099;SDS011;50385;61.766;38.054;2022-08-21T07:54:37;16.23;;;5.03;;
64099;SDS011;50385;61.766;38.054;2022-08-21T07:57:08;12.13;;;5.50;;
64099;SDS011;50385;61.766;38.054;2022-08-21T07:59:35;16.02;;;5.60;;
64099;SDS011;50385;61.766;38.054;2022-08-21T08:02:05;17.77;;;5.32;;
64099;SDS011;50385;61.766;38.054;2022-08-21T08:04:32;15.43;;;6.10;;
64099;SDS011;50385;61.766;38.054;2022-08-21T08:06:59;17.35;;;5.72;;
64099;SDS011;50385;61.766;38.054;2022-08-21T08:09:25;11.93;;;6.18;;
64099;SDS011;50385;61.766;38.054;2022-08-21T08:11:52;15.82;;;5.90;;
64099;SDS011;50385;61.766;38.054;2022-08-21T08:14:19;19.20;;;5.72;;
64099;SDS011;50385;61.766;38.054;2022-08-21T08:16:46;22.83;;;6.10;;
64099;SDS011;50385;61.766;38.054;2022-08-21T08:19:13;15.95;;;5.97;;
64099;SDS011;50385;61.766;38.054;2022-08-21T08:21:40;28.90;;;6.60;;
64099;SDS011;50385;61.766;38.054;2022-08-21T08:24:08;135.48;;;10.02;;
64099;SDS011;50385;61.766;38.054;2022-08-21T08:26:35;79.72;;;8.25;;
64099;SDS011;50385;61.766;38.054;2022-08-21T08:29:04;86.15;;;8.43;;
64099;SDS011;50385;61.766;38.054;2022-08-21T08:31:32;85.75;;;10.00;;
64099;SDS011;50385;61.766;38.054;2022-08-21T08:33:59;50.58;;;7.97;;
64099;SDS011;50385;61.766;38.054;2022-08-21T08:36:34;28.08;;;8.05;;
64099;SDS011;50385;61.766;38.054;2022-08-21T08:39:03;31.23;;;8.25;;
64099;SDS011;50385;61.766;38.054;2022-08-21T08:41:30;18.92;;;8.35;;
64099;SDS011;50385;61.766;38.054;2022-08-21T08:43:59;17.75;;;9.18;;
64099;SDS011;50385;61.766;38.054;2022-08-21T08:46:31;20.85;;;10.52;;
64099;SDS011;50385;61.766;38.054;2022-08-21T08:49:02;28.27;;;11.20;;
64099;SDS011;50385;61.766;38.054;2022-08-21T08:51:52;25.48;;;10.57;;
64099;SDS011;50385;61.766;38.054;2022-08-21T08:56:58;33.83;;;11.20;;
64099;SDS011;50385;61.766;38.054;2022-08-21T08:59:27;24.38;;;12.40;;
64099;SDS011;50385;61.766;38.054;2022-08-21T09:02:06;22.15;;;12.07;;
64099;SDS011;50385;61.766;38.054;2022-08-21T09:04:35;24.02;;;12.85;;
64099;SDS011;50385;61.766;38.054;2022-08-21T09:07:08;211.23;;;20.50;;
64099;SDS011;50385;61.766;38.054;2022-08-21T09:15:21;28.58;;;13.88;;
64099;SDS011;50385;61.766;38.054;2022-08-21T09:18:34;31.83;;;14.40;;
64099;SDS011;50385;61.766;38.054;2022-08-21T09:29:45;27.75;;;15.15;;
64099;SDS011;50385;61.766;38.054;2022-08-21T09:32:22;53.53;;;16.13;;
64099;SDS011;50385;61.766;38.054;2022-08-21T09:37:55;23.88;;;11.98;;
64099;SDS011;50385;61.766;38.054;2022-08-21T09:40:33;25.00;;;11.48;;
64099;SDS011;50385;61.766;38.054;2022-08-21T09:45:39;26.85;;;11.90;;
64099;SDS011;50385;61.766;38.054;2022-08-21T09:48:14;18.83;;;10.77;;
64099;SDS011;50385;61.766;38.054;2022-08-21T09:50:44;78.70;;;11.85;;
64099;SDS011;50385;61.766;38.054;2022-08-21T09:53:16;20.90;;;10.50;;
64099;SDS011;50385;61.766;38.054;2022-08-21T09:55:54;22.02;;;11.43;;
64099;SDS011;50385;61.766;38.054;2022-08-21T09:58:49;26.48;;;12.07;;
64099;SDS011;50385;61.766;38.054;2022-08-21T10:01:18;23.90;;;11.88;;
64099;SDS011;50385;61.766;38.054;2022-08-21T10:03:47;20.75;;;11.13;;
64099;SDS011;50385;61.766;38.054;2022-08-21T10:06:22;42.60;;;11.73;;
64099;SDS011;50385;61.766;38.054;2022-08-21T10:09:04;31.33;;;10.45;;
64099;SDS011;50385;61.766;38.054;2022-08-21T10:11:32;31.75;;;10.40;;
64099;SDS011;50385;61.766;38.054;2022-08-21T10:14:12;26.63;;;9.57;;
64099;SDS011;50385;61.766;38.054;2022-08-21T10:25:11;19.90;;;8.27;;
64099;SDS011;50385;61.766;38.054;2022-08-21T10:30:36;14.52;;;8.00;;
64099;SDS011;50385;61.766;38.054;2022-08-21T10:35:44;28.67;;;8.60;;
64099;SDS011;50385;61.766;38.054;2022-08-21T10:44:08;15.95;;;6.00;;
64099;SDS011;50385;61.766;38.054;2022-08-21T10:46:57;19.90;;;6.45;;
64099;SDS011;50385;61.766;38.054;2022-08-21T10:55:10;13.80;;;4.63;;
64099;SDS011;50385;61.766;38.054;2022-08-21T10:57:43;17.17;;;5.00;;
64099;SDS011;50385;61.766;38.054;2022-08-21T11:00:23;11.48;;;4.32;;
64099;SDS011;50385;61.766;38.054;2022-08-21T11:03:05;53.75;;;5.95;;
64099;SDS011;50385;61.766;38.054;2022-08-21T11:05:52;30.27;;;5.30;;
64099;SDS011;50385;61.766;38.054;2022-08-21T11:08:26;68.45;;;5.60;;
64099;SDS011;50385;61.766;38.054;2022-08-21T11:11:04;42.15;;;6.25;;
64099;SDS011;50385;61.766;38.054;2022-08-21T11:13:50;10.23;;;4.72;;
64099;SDS011;50385;61.766;38.054;2022-08-21T11:18:50;13.32;;;4.47;;
64099;SDS011;50385;61.766;38.054;2022-08-21T11:29:32;30.40;;;5.03;;
64099;SDS011;50385;61.766;38.054;2022-08-21T11:32:10;15.52;;;4.53;;
64099;SDS011;50385;61.766;38.054;2022-08-21T11:34:48;19.73;;;4.88;;
64099;SDS011;50385;61.766;38.054;2022-08-21T11:37:37;18.85;;;5.00;;
64099;SDS011;50385;61.766;38.054;2022-08-21T11:40:13;18.38;;;4.70;;
64099;SDS011;50385;61.766;38.054;2022-08-21T11:54:26;11.57;;;4.93;;
64099;SDS011;50385;61.766;38.054;2022-08-21T11:57:17;13.23;;;4.30;;
64099;SDS011;50385;61.766;38.054;2022-08-21T11:59:53;11.90;;;5.05;;
64099;SDS011;50385;61.766;38.054;2022-08-21T12:02:40;20.30;;;4.75;;
64099;SDS011;50385;61.766;38.054;2022-08-21T12:05:22;8.95;;;4.82;;
64099;SDS011;50385;61.766;38.054;2022-08-21T12:08:27;8.00;;;4.63;;
64099;SDS011;50385;61.766;38.054;2022-08-21T12:11:03;12.45;;;4.53;;
64099;SDS011;50385;61.766;38.054;2022-08-21T12:16:28;10.43;;;4.20;;
64099;SDS011;50385;61.766;38.054;2022-08-21T12:26:54;17.35;;;4.07;;
64099;SDS011;50385;61.766;38.054;2022-08-21T12:29:23;18.90;;;4.35;;
64099;SDS011;50385;61.766;38.054;2022-08-21T12:32:00;15.18;;;4.00;;
64099;SDS011;50385;61.766;38.054;2022-08-21T12:34:38;13.13;;;3.92;;
64099;SDS011;50385;61.766;38.054;2022-08-21T12:37:18;7.97;;;3.70;;
64099;SDS011;50385;61.766;38.054;2022-08-21T12:39:49;12.38;;;4.30;;
64099;SDS011;50385;61.766;38.054;2022-08-21T12:42:23;9.70;;;3.65;;
64099;SDS011;50385;61.766;38.054;2022-08-21T12:44:57;8.50;;;4.13;;
64099;SDS011;50385;61.766;38.054;2022-08-21T12:47:47;14.18;;;4.43;;
64099;SDS011;50385;61.766;38.054;2022-08-21T12:53:28;17.27;;;3.88;;
64099;SDS011;50385;61.766;38.054;2022-08-21T12:56:01;7.78;;;3.40;;
64099;SDS011;50385;61.766;38.054;2022-08-21T12:58:30;8.73;;;4.15;;
64099;SDS011;50385;61.766;38.054;2022-08-21T13:01:01;8.20;;;3.45;;
64099;SDS011;50385;61.766;38.054;2022-08-21T13:03:35;9.95;;;3.45;;
64099;SDS011;50385;61.766;38.054;2022-08-21T13:06:03;15.90;;;4.15;;
64099;SDS011;50385;61.766;38.054;2022-08-21T13:08:32;21.38;;;3.53;;
64099;SDS011;50385;61.766;38.054;2022-08-21T13:11:03;10.85;;;3.50;;
64099;SDS011;50385;61.766;38.054;2022-08-21T13:13:32;9.48;;;3.28;;
64099;SDS011;50385;61.766;38.054;2022-08-21T13:16:01;8.52;;;2.80;;
64099;SDS011;50385;61.766;38.054;2022-08-21T13:18:30;7.13;;;3.10;;
64099;SDS011;50385;61.766;38.054;2022-08-21T13:21:05;10.40;;;3.05;;
64099;SDS011;50385;61.766;38.054;2022-08-21T13:23:41;16.60;;;3.55;;
64099;SDS011;50385;61.766;38.054;2022-08-21T13:26:20;10.70;;;3.63;;
64099;SDS011;50385;61.766;38.054;2022-08-21T13:28:48;11.13;;;3.20;;
64099;SDS011;50385;61.766;38.054;2022-08-21T13:31:18;12.25;;;3.17;;
64099;SDS011;50385;61.766;38.054;2022-08-21T13:33:48;15.35;;;3.47;;
64099;SDS011;50385;61.766;38.054;2022-08-21T13:36:18;19.27;;;3.22;;
64099;SDS011;50385;61.766;38.054;2022-08-21T13:38:53;9.13;;;3.28;;
64099;SDS011;50385;61.766;38.054;2022-08-21T13:41:22;7.45;;;3.38;;
64099;SDS011;50385;61.766;38.054;2022-08-21T13:43:59;18.63;;;3.38;;
64099;SDS011;50385;61.766;38.054;2022-08-21T13:46:29;9.50;;;3.17;;
64099;SDS011;50385;61.766;38.054;2022-08-21T13:49:03;15.50;;;3.20;;
64099;SDS011;50385;61.766;38.054;2022-08-21T13:51:36;8.90;;;3.17;;
64099;SDS011;50385;61.766;38.054;2022-08-21T13:54:14;13.55;;;3.28;;
64099;SDS011;50385;61.766;38.054;2022-08-21T13:56:45;11.20;;;3.13;;
64099;SDS011;50385;61.766;38.054;2022-08-21T13:59:23;15.98;;;3.10;;
64099;SDS011;50385;61.766;38.054;2022-08-21T14:02:20;5.25;;;2.60;;
64099;SDS011;50385;61.766;38.054;2022-08-21T14:07:35;8.02;;;2.97;;
64099;SDS011;50385;61.766;38.054;2022-08-21T14:10:05;4.03;;;2.92;;
64099;SDS011;50385;61.766;38.054;2022-08-21T14:12:45;43.38;;;4.10;;
64099;SDS011;50385;61.766;38.054;2022-08-21T14:15:26;13.32;;;2.85;;
64099;SDS011;50385;61.766;38.054;2022-08-21T14:18:16;13.88;;;3.10;;
64099;SDS011;50385;61.766;38.054;2022-08-21T14:20:45;7.35;;;3.60;;
64099;SDS011;50385;61.766;38.054;2022-08-21T14:23:23;9.30;;;2.95;;
64099;SDS011;50385;61.766;38.054;2022-08-21T14:25:53;7.82;;;3.40;;
64099;SDS011;50385;61.766;38.054;2022-08-21T14:28:27;10.57;;;3.53;;
64099;SDS011;50385;61.766;38.054;2022-08-21T14:31:48;17.10;;;3.42;;
64099;SDS011;50385;61.766;38.054;2022-08-21T14:37:51;8.45;;;2.97;;
64099;SDS011;50385;61.766;38.054;2022-08-21T14:40:19;9.35;;;3.42;;
64099;SDS011;50385;61.766;38.054;2022-08-21T14:42:52;7.88;;;3.35;;
64099;SDS011;50385;61.766;38.054;2022-08-21T14:45:25;6.97;;;3.03;;
64099;SDS011;50385;61.766;38.054;2022-08-21T14:47:54;12.63;;;3.45;;
64099;SDS011;50385;61.766;38.054;2022-08-21T14:50:22;10.02;;;3.60;;
64099;SDS011;50385;61.766;38.054;2022-08-21T14:52:49;13.75;;;3.90;;
64099;SDS011;50385;61.766;38.054;2022-08-21T14:55:16;11.55;;;3.80;;
64099;SDS011;50385;61.766;38.054;2022-08-21T14:57:45;15.50;;;4.28;;
64099;SDS011;50385;61.766;38.054;2022-08-21T15:00:15;19.92;;;3.90;;
64099;SDS011;50385;61.766;38.054;2022-08-21T15:02:51;10.95;;;3.75;;
64099;SDS011;50385;61.766;38.054;2022-08-21T15:05:18;14.95;;;3.85;;
64099;SDS011;50385;61.766;38.054;2022-08-21T15:07:45;12.95;;;3.42;;
64099;SDS011;50385;61.766;38.054;2022-08-21T15:10:12;6.35;;;2.90;;
64099;SDS011;50385;61.766;38.054;2022-08-21T15:12:40;8.75;;;3.17;;
64099;SDS011;50385;61.766;38.054;2022-08-21T15:15:07;5.70;;;3.10;;
64099;SDS011;50385;61.766;38.054;2022-08-21T15:17:34;9.48;;;2.85;;
64099;SDS011;50385;61.766;38.054;2022-08-21T15:20:02;6.20;;;3.10;;
64099;SDS011;50385;61.766;38.054;2022-08-21T15:22:31;11.68;;;3.13;;
64099;SDS011;50385;61.766;38.054;2022-08-21T15:24:58;19.25;;;3.50;;
64099;SDS011;50385;61.766;38.054;2022-08-21T15:27:25;6.22;;;3.20;;
64099;SDS011;50385;61.766;38.054;2022-08-21T15:29:51;10.60;;;3.08;;
64099;SDS011;50385;61.766;38.054;2022-08-21T15:32:23;9.18;;;3.33;;
64099;SDS011;50385;61.766;38.054;2022-08-21T15:34:52;6.53;;;3.00;;
64099;SDS011;50385;61.766;38.054;2022-08-21T15:37:20;9.93;;;2.80;;
64099;SDS011;50385;61.766;38.054;2022-08-21T15:39:50;11.57;;;3.15;;
64099;SDS011;50385;61.766;38.054;2022-08-21T15:42:17;8.52;;;3.55;;
64099;SDS011;50385;61.766;38.054;2022-08-21T15:44:45;10.02;;;3.13;;
64099;SDS011;50385;61.766;38.054;2022-08-21T15:47:16;6.43;;;3.17;;
64099;SDS011;50385;61.766;38.054;2022-08-21T15:49:45;15.60;;;3.45;;
64099;SDS011;50385;61.766;38.054;2022-08-21T15:52:15;11.55;;;3.33;;
64099;SDS011;50385;61.766;38.054;2022-08-21T15:54:44;10.00;;;3.42;;
64099;SDS011;50385;61.766;38.054;2022-08-21T15:57:12;12.27;;;3.58;;
64099;SDS011;50385;61.766;38.054;2022-08-21T15:59:42;8.70;;;3.58;;
64099;SDS011;50385;61.766;38.054;2022-08-21T16:02:32;6.25;;;3.40;;
64099;SDS011;50385;61.766;38.054;2022-08-21T16:04:59;8.55;;;3.50;;
64099;SDS011;50385;61.766;38.054;2022-08-21T16:07:26;7.70;;;3.30;;
64099;SDS011;50385;61.766;38.054;2022-08-21T16:09:53;12.23;;;3.28;;
64099;SDS011;50385;61.766;38.054;2022-08-21T16:12:24;11.88;;;2.85;;
64099;SDS011;50385;61.766;38.054;2022-08-21T16:14:53;16.42;;;4.43;;
64099;SDS011;50385;61.766;38.054;2022-08-21T16:17:22;14.52;;;3.50;;
64099;SDS011;50385;61.766;38.054;2022-08-21T16:19:54;12.47;;;3.70;;
64099;SDS011;50385;61.766;38.054;2022-08-21T16:22:21;8.75;;;3.42;;
64099;SDS011;50385;61.766;38.054;2022-08-21T16:24:49;14.05;;;3.22;;
64099;SDS011;50385;61.766;38.054;2022-08-21T16:27:18;14.95;;;3.60;;
64099;SDS011;50385;61.766;38.054;2022-08-21T16:29:46;7.88;;;3.22;;
64099;SDS011;50385;61.766;38.054;2022-08-21T16:32:15;14.23;;;3.40;;
64099;SDS011;50385;61.766;38.054;2022-08-21T16:34:52;10.45;;;3.55;;
64099;SDS011;50385;61.766;38.054;2022-08-21T16:37:23;12.50;;;3.30;;
64099;SDS011;50385;61.766;38.054;2022-08-21T16:39:54;9.47;;;3.57;;
64099;SDS011;50385;61.766;38.054;2022-08-21T16:42:23;8.85;;;3.00;;
64099;SDS011;50385;61.766;38.054;2022-08-21T16:44:52;18.95;;;4.50;;
64099;SDS011;50385;61.766;38.054;2022-08-21T16:47:22;16.10;;;3.50;;
64099;SDS011;50385;61.766;38.054;2022-08-21T16:49:51;19.90;;;3.78;;
64099;SDS011;50385;61.766;38.054;2022-08-21T16:52:19;20.27;;;3.45;;
64099;SDS011;50385;61.766;38.054;2022-08-21T16:54:46;11.68;;;3.17;;
64099;SDS011;50385;61.766;38.054;2022-08-21T16:57:13;19.23;;;4.05;;
64099;SDS011;50385;61.766;38.054;2022-08-21T16:59:40;13.27;;;3.33;;
64099;SDS011;50385;61.766;38.054;2022-08-21T17:02:27;11.32;;;3.45;;
64099;SDS011;50385;61.766;38.054;2022-08-21T17:05:03;12.40;;;3.50;;
64099;SDS011;50385;61.766;38.054;2022-08-21T17:07:31;15.88;;;3.28;;
64099;SDS011;50385;61.766;38.054;2022-08-21T17:09:58;11.05;;;3.25;;
64099;SDS011;50385;61.766;38.054;2022-08-21T17:12:28;6.68;;;3.00;;
64099;SDS011;50385;61.766;38.054;2022-08-21T17:15:04;3.92;;;2.90;;
64099;SDS011;50385;61.766;38.054;2022-08-21T17:17:38;80.97;;;5.57;;
64099;SDS011;50385;61.766;38.054;2022-08-21T17:20:05;10.20;;;3.50;;
64099;SDS011;50385;61.766;38.054;2022-08-21T17:22:32;11.70;;;3.58;;
64099;SDS011;50385;61.766;38.054;2022-08-21T17:24:59;14.35;;;4.18;;
64099;SDS011;50385;61.766;38.054;2022-08-21T17:27:26;9.35;;;3.40;;
64099;SDS011;50385;61.766;38.054;2022-08-21T17:29:54;10.35;;;3.10;;
64099;SDS011;50385;61.766;38.054;2022-08-21T17:32:22;14.13;;;3.80;;
64099;SDS011;50385;61.766;38.054;2022-08-21T17:34:50;12.85;;;2.80;;
64099;SDS011;50385;61.766;38.054;2022-08-21T17:37:17;13.85;;;3.20;;
64099;SDS011;50385;61.766;38.054;2022-08-21T17:39:46;13.57;;;3.63;;
64099;SDS011;50385;61.766;38.054;2022-08-21T17:42:21;13.52;;;3.40;;
64099;SDS011;50385;61.766;38.054;2022-08-21T17:44:52;10.95;;;3.45;;
64099;SDS011;50385;61.766;38.054;2022-08-21T17:47:21;16.52;;;3.60;;